sensor_id;sensor_type;location;lat;lon;timestamp;temperature;humidity
45983;DHT22;31711;47.158;7.346;2022-10-23T00:01:21;11.50;99.90
45983;DHT22;31711;47.158;7.346;2022-10-23T00:03:58;11.60;99.90
45983;DHT22;31711;47.158;7.346;2022-10-23T00:06:28;11.70;99.90
45983;DHT22;31711;47.158;7.346;2022-10-23T00:08:55;11.70;99.90
45983;DHT22;31711;47.158;7.346;2022-10-23T00:11:23;11.70;99.90
45983;DHT22;31711;47.158;7.346;2022-10-23T00:13:50;11.70;99.90
45983;DHT22;31711;47.158;7.346;2022-10-23T00:16:19;11.70;99.90
45983;DHT22;31711;47.158;7.346;2022-10-23T00:18:48;11.80;99.90
45983;DHT22;31711;47.158;7.346;2022-10-23T00:21:15;11.70;99.90
45983;DHT22;31711;47.158;7.346;2022-10-23T00:23:42;11.70;99.90
45983;DHT22;31711;47.158;7.346;2022-10-23T00:26:08;11.60;99.90
45983;DHT22;31711;47.158;7.346;2022-10-23T00:28:42;11.60;99.90
45983;DHT22;31711;47.158;7.346;2022-10-23T00:31:08;11.60;99.90
45983;DHT22;31711;47.158;7.346;2022-10-23T00:33:35;11.60;99.90
45983;DHT22;31711;47.158;7.346;2022-10-23T00:36:04;11.60;99.90
45983;DHT22;31711;47.158;7.346;2022-10-23T00:38:30;11.60;99.90
45983;DHT22;31711;47.158;7.346;2022-10-23T00:40:56;11.50;99.90
45983;DHT22;31711;47.158;7.346;2022-10-23T00:43:24;11.50;99.90
45983;DHT22;31711;47.158;7.346;2022-10-23T00:45:51;11.50;99.90
45983;DHT22;31711;47.158;7.346;2022-10-23T00:48:17;11.50;99.90
45983;DHT22;31711;47.158;7.346;2022-10-23T00:50:44;11.50;99.90
45983;DHT22;31711;47.158;7.346;2022-10-23T00:53:12;11.50;99.90
45983;DHT22;31711;47.158;7.346;2022-10-23T00:55:39;11.40;99.90
45983;DHT22;31711;47.158;7.346;2022-10-23T00:58:10;11.40;99.90
45983;DHT22;31711;47.158;7.346;2022-10-23T01:03:07;11.30;99.90
45983;DHT22;31711;47.158;7.346;2022-10-23T01:08:31;11.30;99.90
45983;DHT22;31711;47.158;7.346;2022-10-23T01:11:09;11.10;99.90
45983;DHT22;31711;47.158;7.346;2022-10-23T01:14:11;11.00;99.90
45983;DHT22;31711;47.158;7.346;2022-10-23T01:16:48;11.00;99.90
45983;DHT22;31711;47.158;7.346;2022-10-23T01:20:06;11.00;99.90
45983;DHT22;31711;47.158;7.346;2022-10-23T01:28:08;10.90;99.90
45983;DHT22;31711;47.158;7.346;2022-10-23T01:30:42;10.90;99.90
45983;DHT22;31711;47.158;7.346;2022-10-23T01:33:42;10.90;99.90
45983;DHT22;31711;47.158;7.346;2022-10-23T01:36:14;10.90;99.90
45983;DHT22;31711;47.158;7.346;2022-10-23T01:38:57;10.90;99.90
45983;DHT22;31711;47.158;7.346;2022-10-23T01:41:43;10.80;99.90
45983;DHT22;31711;47.158;7.346;2022-10-23T01:44:12;10.80;99.90
45983;DHT22;31711;47.158;7.346;2022-10-23T01:46:40;10.70;99.90
45983;DHT22;31711;47.158;7.346;2022-10-23T01:49:10;10.70;99.90
45983;DHT22;31711;47.158;7.346;2022-10-23T01:51:38;10.60;99.90
45983;DHT22;31711;47.158;7.346;2022-10-23T01:54:08;10.60;99.90
45983;DHT22;31711;47.158;7.346;2022-10-23T01:56:37;10.70;99.90
45983;DHT22;31711;47.158;7.346;2022-10-23T01:59:07;10.80;99.90
45983;DHT22;31711;47.158;7.346;2022-10-23T02:01:36;10.70;99.90
45983;DHT22;31711;47.158;7.346;2022-10-23T02:04:08;10.70;99.90
45983;DHT22;31711;47.158;7.346;2022-10-23T02:06:35;10.80;99.90
45983;DHT22;31711;47.158;7.346;2022-10-23T02:09:01;10.90;99.90
45983;DHT22;31711;47.158;7.346;2022-10-23T02:11:27;10.90;99.90
45983;DHT22;31711;47.158;7.346;2022-10-23T02:24:37;11.00;99.90
45983;DHT22;31711;47.158;7.346;2022-10-23T02:27:10;11.00;99.90
45983;DHT22;31711;47.158;7.346;2022-10-23T02:32:10;11.00;99.90
45983;DHT22;31711;47.158;7.346;2022-10-23T02:34:37;11.00;99.90
45983;DHT22;31711;47.158;7.346;2022-10-23T02:37:03;10.90;99.90
45983;DHT22;31711;47.158;7.346;2022-10-23T02:39:29;10.80;99.90
45983;DHT22;31711;47.158;7.346;2022-10-23T02:50:31;10.80;99.90
45983;DHT22;31711;47.158;7.346;2022-10-23T02:53:19;10.90;99.90
45983;DHT22;31711;47.158;7.346;2022-10-23T02:58:58;10.80;99.90
45983;DHT22;31711;47.158;7.346;2022-10-23T03:02:01;10.80;99.90
45983;DHT22;31711;47.158;7.346;2022-10-23T03:04:21;10.90;99.90
45983;DHT22;31711;47.158;7.346;2022-10-23T03:06:50;10.80;99.90
45983;DHT22;31711;47.158;7.346;2022-10-23T03:09:16;10.90;99.90
45983;DHT22;31711;47.158;7.346;2022-10-23T03:11:42;10.80;99.90
45983;DHT22;31711;47.158;7.346;2022-10-23T03:14:10;10.80;99.90
45983;DHT22;31711;47.158;7.346;2022-10-23T03:16:37;10.80;99.90
45983;DHT22;31711;47.158;7.346;2022-10-23T03:19:03;10.80;99.90
45983;DHT22;31711;47.158;7.346;2022-10-23T03:21:29;10.90;99.90
45983;DHT22;31711;47.158;7.346;2022-10-23T03:23:55;10.90;99.90
45983;DHT22;31711;47.158;7.346;2022-10-23T03:26:21;10.80;99.90
45983;DHT22;31711;47.158;7.346;2022-10-23T03:28:47;10.80;99.90
45983;DHT22;31711;47.158;7.346;2022-10-23T03:31:13;10.70;99.90
45983;DHT22;31711;47.158;7.346;2022-10-23T03:33:39;10.60;99.90
45983;DHT22;31711;47.158;7.346;2022-10-23T03:36:05;10.70;99.90
45983;DHT22;31711;47.158;7.346;2022-10-23T03:38:31;10.70;99.90
45983;DHT22;31711;47.158;7.346;2022-10-23T03:40:57;10.70;99.90
45983;DHT22;31711;47.158;7.346;2022-10-23T03:43:23;10.70;99.90
45983;DHT22;31711;47.158;7.346;2022-10-23T03:45:49;10.70;99.90
45983;DHT22;31711;47.158;7.346;2022-10-23T03:48:16;10.60;99.90
45983;DHT22;31711;47.158;7.346;2022-10-23T03:50:42;10.60;99.90
45983;DHT22;31711;47.158;7.346;2022-10-23T03:53:08;10.60;99.90
45983;DHT22;31711;47.158;7.346;2022-10-23T03:55:34;10.70;99.90
45983;DHT22;31711;47.158;7.346;2022-10-23T03:58:00;10.60;99.90
45983;DHT22;31711;47.158;7.346;2022-10-23T04:00:26;10.60;99.90
45983;DHT22;31711;47.158;7.346;2022-10-23T04:02:52;10.70;99.90
45983;DHT22;31711;47.158;7.346;2022-10-23T04:05:18;10.70;99.90
45983;DHT22;31711;47.158;7.346;2022-10-23T04:07:44;10.70;99.90
45983;DHT22;31711;47.158;7.346;2022-10-23T04:10:10;10.60;99.90
45983;DHT22;31711;47.158;7.346;2022-10-23T04:12:36;10.60;99.90
45983;DHT22;31711;47.158;7.346;2022-10-23T04:15:02;10.70;99.90
45983;DHT22;31711;47.158;7.346;2022-10-23T04:17:28;10.70;99.90
45983;DHT22;31711;47.158;7.346;2022-10-23T04:19:54;10.70;99.90
45983;DHT22;31711;47.158;7.346;2022-10-23T04:22:20;10.70;99.90
45983;DHT22;31711;47.158;7.346;2022-10-23T04:24:46;10.70;99.90
45983;DHT22;31711;47.158;7.346;2022-10-23T04:27:12;10.70;99.90
45983;DHT22;31711;47.158;7.346;2022-10-23T04:29:39;10.90;99.90
45983;DHT22;31711;47.158;7.346;2022-10-23T04:32:06;10.90;99.90
45983;DHT22;31711;47.158;7.346;2022-10-23T04:34:32;10.90;99.90
45983;DHT22;31711;47.158;7.346;2022-10-23T04:36:58;11.00;99.90
45983;DHT22;31711;47.158;7.346;2022-10-23T04:39:24;11.00;99.90
45983;DHT22;31711;47.158;7.346;2022-10-23T04:41:50;11.00;99.90
45983;DHT22;31711;47.158;7.346;2022-10-23T04:44:16;11.00;99.90
45983;DHT22;31711;47.158;7.346;2022-10-23T04:46:42;10.80;99.90
45983;DHT22;31711;47.158;7.346;2022-10-23T04:49:08;10.90;99.90
45983;DHT22;31711;47.158;7.346;2022-10-23T04:51:33;10.90;99.90
45983;DHT22;31711;47.158;7.346;2022-10-23T04:53:59;10.90;99.90
45983;DHT22;31711;47.158;7.346;2022-10-23T04:56:25;11.10;99.90
45983;DHT22;31711;47.158;7.346;2022-10-23T04:58:51;11.00;99.90
45983;DHT22;31711;47.158;7.346;2022-10-23T05:01:17;11.10;99.90
45983;DHT22;31711;47.158;7.346;2022-10-23T05:03:43;11.20;99.90
45983;DHT22;31711;47.158;7.346;2022-10-23T05:06:09;11.30;99.90
45983;DHT22;31711;47.158;7.346;2022-10-23T05:08:35;11.20;99.90
45983;DHT22;31711;47.158;7.346;2022-10-23T05:11:01;11.30;99.90
45983;DHT22;31711;47.158;7.346;2022-10-23T05:13:27;11.40;99.90
45983;DHT22;31711;47.158;7.346;2022-10-23T05:15:53;11.30;99.90
45983;DHT22;31711;47.158;7.346;2022-10-23T05:18:23;11.20;99.90
45983;DHT22;31711;47.158;7.346;2022-10-23T05:20:55;11.10;99.90
45983;DHT22;31711;47.158;7.346;2022-10-23T05:23:24;11.10;99.90
45983;DHT22;31711;47.158;7.346;2022-10-23T05:25:51;11.10;99.90
45983;DHT22;31711;47.158;7.346;2022-10-23T05:28:17;11.20;99.90
45983;DHT22;31711;47.158;7.346;2022-10-23T05:30:43;11.30;99.90
45983;DHT22;31711;47.158;7.346;2022-10-23T05:33:10;11.20;99.90
45983;DHT22;31711;47.158;7.346;2022-10-23T05:35:37;11.20;99.90
45983;DHT22;31711;47.158;7.346;2022-10-23T05:38:05;11.20;99.90
45983;DHT22;31711;47.158;7.346;2022-10-23T05:40:31;11.30;99.90
45983;DHT22;31711;47.158;7.346;2022-10-23T05:42:57;11.30;99.90
45983;DHT22;31711;47.158;7.346;2022-10-23T05:45:23;11.30;99.90
45983;DHT22;31711;47.158;7.346;2022-10-23T05:47:49;11.30;99.90
45983;DHT22;31711;47.158;7.346;2022-10-23T05:50:15;11.40;99.90
45983;DHT22;31711;47.158;7.346;2022-10-23T05:52:44;11.50;99.90
45983;DHT22;31711;47.158;7.346;2022-10-23T05:55:10;11.50;99.90
45983;DHT22;31711;47.158;7.346;2022-10-23T05:57:36;11.50;99.90
45983;DHT22;31711;47.158;7.346;2022-10-23T06:00:02;11.50;99.90
45983;DHT22;31711;47.158;7.346;2022-10-23T06:02:29;11.60;99.90
45983;DHT22;31711;47.158;7.346;2022-10-23T06:04:54;11.50;99.90
45983;DHT22;31711;47.158;7.346;2022-10-23T06:07:28;11.50;99.90
45983;DHT22;31711;47.158;7.346;2022-10-23T06:09:54;11.50;99.90
45983;DHT22;31711;47.158;7.346;2022-10-23T06:12:21;11.60;99.90
45983;DHT22;31711;47.158;7.346;2022-10-23T06:14:47;11.60;99.90
45983;DHT22;31711;47.158;7.346;2022-10-23T06:17:14;11.60;99.90
45983;DHT22;31711;47.158;7.346;2022-10-23T06:19:42;11.60;99.90
45983;DHT22;31711;47.158;7.346;2022-10-23T06:22:08;11.60;99.90
45983;DHT22;31711;47.158;7.346;2022-10-23T06:24:34;11.60;99.90
45983;DHT22;31711;47.158;7.346;2022-10-23T06:27:00;11.70;99.90
45983;DHT22;31711;47.158;7.346;2022-10-23T06:29:25;11.60;99.90
45983;DHT22;31711;47.158;7.346;2022-10-23T06:31:51;11.70;99.90
45983;DHT22;31711;47.158;7.346;2022-10-23T06:34:17;11.60;99.90
45983;DHT22;31711;47.158;7.346;2022-10-23T06:36:43;11.70;99.90
45983;DHT22;31711;47.158;7.346;2022-10-23T06:39:09;11.80;99.90
45983;DHT22;31711;47.158;7.346;2022-10-23T06:41:35;11.80;99.90
45983;DHT22;31711;47.158;7.346;2022-10-23T06:44:03;11.90;99.90
45983;DHT22;31711;47.158;7.346;2022-10-23T06:46:29;11.90;99.90
45983;DHT22;31711;47.158;7.346;2022-10-23T06:48:57;12.00;99.90
45983;DHT22;31711;47.158;7.346;2022-10-23T06:51:23;12.00;99.90
45983;DHT22;31711;47.158;7.346;2022-10-23T06:53:54;12.00;99.90
45983;DHT22;31711;47.158;7.346;2022-10-23T06:56:21;12.10;99.90
45983;DHT22;31711;47.158;7.346;2022-10-23T06:58:47;12.10;99.90
45983;DHT22;31711;47.158;7.346;2022-10-23T07:01:13;12.10;99.90
45983;DHT22;31711;47.158;7.346;2022-10-23T07:03:41;12.10;99.90
45983;DHT22;31711;47.158;7.346;2022-10-23T07:06:08;12.10;99.90
45983;DHT22;31711;47.158;7.346;2022-10-23T07:08:35;12.10;99.90
45983;DHT22;31711;47.158;7.346;2022-10-23T07:11:05;12.10;99.90
45983;DHT22;31711;47.158;7.346;2022-10-23T07:13:33;12.10;99.90
45983;DHT22;31711;47.158;7.346;2022-10-23T07:16:11;12.20;99.90
45983;DHT22;31711;47.158;7.346;2022-10-23T07:18:38;12.20;99.90
45983;DHT22;31711;47.158;7.346;2022-10-23T07:21:04;12.10;99.90
45983;DHT22;31711;47.158;7.346;2022-10-23T07:23:30;12.10;99.90
45983;DHT22;31711;47.158;7.346;2022-10-23T07:26:05;12.10;99.90
45983;DHT22;31711;47.158;7.346;2022-10-23T07:28:31;12.00;99.90
45983;DHT22;31711;47.158;7.346;2022-10-23T07:30:57;12.00;99.90
45983;DHT22;31711;47.158;7.346;2022-10-23T07:33:24;12.00;99.90
45983;DHT22;31711;47.158;7.346;2022-10-23T07:35:50;12.00;99.90
45983;DHT22;31711;47.158;7.346;2022-10-23T07:38:16;12.10;99.90
45983;DHT22;31711;47.158;7.346;2022-10-23T07:40:43;12.20;99.90
45983;DHT22;31711;47.158;7.346;2022-10-23T07:43:09;12.30;99.90
45983;DHT22;31711;47.158;7.346;2022-10-23T07:45:35;12.40;99.90
45983;DHT22;31711;47.158;7.346;2022-10-23T07:48:01;12.50;99.90
45983;DHT22;31711;47.158;7.346;2022-10-23T07:50:27;12.60;99.90
45983;DHT22;31711;47.158;7.346;2022-10-23T07:52:53;12.60;99.90
45983;DHT22;31711;47.158;7.346;2022-10-23T07:55:19;12.70;99.90
45983;DHT22;31711;47.158;7.346;2022-10-23T07:57:45;12.60;99.90
45983;DHT22;31711;47.158;7.346;2022-10-23T08:00:11;12.70;99.90
45983;DHT22;31711;47.158;7.346;2022-10-23T08:02:37;12.80;99.90
45983;DHT22;31711;47.158;7.346;2022-10-23T08:05:03;12.80;99.90
45983;DHT22;31711;47.158;7.346;2022-10-23T08:07:29;12.80;99.90
45983;DHT22;31711;47.158;7.346;2022-10-23T08:09:55;12.60;99.90
45983;DHT22;31711;47.158;7.346;2022-10-23T08:12:21;12.50;99.90
45983;DHT22;31711;47.158;7.346;2022-10-23T08:14:47;12.60;99.90
45983;DHT22;31711;47.158;7.346;2022-10-23T08:17:13;12.60;99.90
45983;DHT22;31711;47.158;7.346;2022-10-23T08:19:39;12.60;99.90
45983;DHT22;31711;47.158;7.346;2022-10-23T08:22:05;12.70;99.90
45983;DHT22;31711;47.158;7.346;2022-10-23T08:24:31;12.60;99.90
45983;DHT22;31711;47.158;7.346;2022-10-23T08:26:57;12.50;99.90
45983;DHT22;31711;47.158;7.346;2022-10-23T08:29:24;12.50;99.90
45983;DHT22;31711;47.158;7.346;2022-10-23T08:31:52;12.80;99.90
45983;DHT22;31711;47.158;7.346;2022-10-23T08:34:20;12.70;99.90
45983;DHT22;31711;47.158;7.346;2022-10-23T08:36:46;12.60;99.90
45983;DHT22;31711;47.158;7.346;2022-10-23T08:39:12;12.70;99.90
45983;DHT22;31711;47.158;7.346;2022-10-23T08:41:46;12.80;99.90
45983;DHT22;31711;47.158;7.346;2022-10-23T08:44:20;12.90;99.90
45983;DHT22;31711;47.158;7.346;2022-10-23T08:47:12;13.20;99.90
45983;DHT22;31711;47.158;7.346;2022-10-23T08:49:48;13.10;99.90
45983;DHT22;31711;47.158;7.346;2022-10-23T08:52:46;13.20;99.90
45983;DHT22;31711;47.158;7.346;2022-10-23T08:55:18;13.40;99.90
45983;DHT22;31711;47.158;7.346;2022-10-23T08:57:56;13.40;99.90
45983;DHT22;31711;47.158;7.346;2022-10-23T09:00:23;13.30;99.90
45983;DHT22;31711;47.158;7.346;2022-10-23T09:02:51;13.30;99.90
45983;DHT22;31711;47.158;7.346;2022-10-23T09:05:29;13.50;99.90
45983;DHT22;31711;47.158;7.346;2022-10-23T09:19:21;14.00;99.90
45983;DHT22;31711;47.158;7.346;2022-10-23T09:21:49;13.60;99.90
45983;DHT22;31711;47.158;7.346;2022-10-23T09:24:18;13.80;99.90
45983;DHT22;31711;47.158;7.346;2022-10-23T09:26:46;14.00;99.90
45983;DHT22;31711;47.158;7.346;2022-10-23T09:31:56;13.70;99.90
45983;DHT22;31711;47.158;7.346;2022-10-23T09:34:25;13.70;99.90
45983;DHT22;31711;47.158;7.346;2022-10-23T09:36:55;13.70;99.90
45983;DHT22;31711;47.158;7.346;2022-10-23T09:39:27;13.70;99.90
45983;DHT22;31711;47.158;7.346;2022-10-23T09:41:53;13.80;99.90
45983;DHT22;31711;47.158;7.346;2022-10-23T09:44:27;13.70;99.90
45983;DHT22;31711;47.158;7.346;2022-10-23T09:49:33;13.80;99.90
45983;DHT22;31711;47.158;7.346;2022-10-23T09:54:32;13.70;99.90
45983;DHT22;31711;47.158;7.346;2022-10-23T09:57:14;13.60;99.90
45983;DHT22;31711;47.158;7.346;2022-10-23T09:59:52;13.70;99.90
45983;DHT22;31711;47.158;7.346;2022-10-23T10:02:33;13.80;99.90
45983;DHT22;31711;47.158;7.346;2022-10-23T10:05:24;13.80;99.90
45983;DHT22;31711;47.158;7.346;2022-10-23T10:08:14;13.90;99.90
45983;DHT22;31711;47.158;7.346;2022-10-23T10:10:54;14.20;99.90
45983;DHT22;31711;47.158;7.346;2022-10-23T10:23:37;14.90;99.90
45983;DHT22;31711;47.158;7.346;2022-10-23T10:26:37;15.10;99.90
45983;DHT22;31711;47.158;7.346;2022-10-23T10:29:27;15.30;99.90
45983;DHT22;31711;47.158;7.346;2022-10-23T10:40:34;15.50;99.90
45983;DHT22;31711;47.158;7.346;2022-10-23T10:43:20;15.80;99.90
45983;DHT22;31711;47.158;7.346;2022-10-23T10:48:59;16.10;99.90
45983;DHT22;31711;47.158;7.346;2022-10-23T10:56:57;16.60;99.90
45983;DHT22;31711;47.158;7.346;2022-10-23T10:59:35;16.60;99.90
45983;DHT22;31711;47.158;7.346;2022-10-23T11:02:24;16.30;99.90
45983;DHT22;31711;47.158;7.346;2022-10-23T11:07:23;16.40;99.90
45983;DHT22;31711;47.158;7.346;2022-10-23T11:09:50;15.80;99.90
45983;DHT22;31711;47.158;7.346;2022-10-23T11:12:20;15.90;99.90
45983;DHT22;31711;47.158;7.346;2022-10-23T11:14:48;15.90;99.90
45983;DHT22;31711;47.158;7.346;2022-10-23T11:19:51;15.80;99.90
45983;DHT22;31711;47.158;7.346;2022-10-23T11:28:10;15.90;99.90
45983;DHT22;31711;47.158;7.346;2022-10-23T11:36:49;16.40;99.90
45983;DHT22;31711;47.158;7.346;2022-10-23T11:39:21;16.60;99.90
45983;DHT22;31711;47.158;7.346;2022-10-23T11:42:33;16.60;99.90
45983;DHT22;31711;47.158;7.346;2022-10-23T11:44:45;16.80;99.90
45983;DHT22;31711;47.158;7.346;2022-10-23T11:49:49;16.90;99.90
45983;DHT22;31711;47.158;7.346;2022-10-23T11:52:23;16.80;99.90
45983;DHT22;31711;47.158;7.346;2022-10-23T11:55:04;16.80;99.90
45983;DHT22;31711;47.158;7.346;2022-10-23T11:57:40;17.00;99.90
45983;DHT22;31711;47.158;7.346;2022-10-23T12:00:22;17.10;99.90
45983;DHT22;31711;47.158;7.346;2022-10-23T12:02:51;17.30;99.90
45983;DHT22;31711;47.158;7.346;2022-10-23T12:05:36;17.40;99.90
45983;DHT22;31711;47.158;7.346;2022-10-23T12:08:15;17.30;99.90
45983;DHT22;31711;47.158;7.346;2022-10-23T12:10:45;17.10;99.90
45983;DHT22;31711;47.158;7.346;2022-10-23T12:13:42;17.10;99.90
45983;DHT22;31711;47.158;7.346;2022-10-23T12:16:10;16.90;99.90
45983;DHT22;31711;47.158;7.346;2022-10-23T12:18:51;16.90;99.90
45983;DHT22;31711;47.158;7.346;2022-10-23T12:21:23;16.70;99.90
45983;DHT22;31711;47.158;7.346;2022-10-23T12:26:46;16.40;99.90
45983;DHT22;31711;47.158;7.346;2022-10-23T12:29:36;16.60;99.90
45983;DHT22;31711;47.158;7.346;2022-10-23T12:32:51;16.50;99.90
45983;DHT22;31711;47.158;7.346;2022-10-23T12:35:20;16.40;99.90
45983;DHT22;31711;47.158;7.346;2022-10-23T12:38:14;16.40;99.90
45983;DHT22;31711;47.158;7.346;2022-10-23T12:40:52;16.60;99.90
45983;DHT22;31711;47.158;7.346;2022-10-23T12:43:33;16.70;99.90
45983;DHT22;31711;47.158;7.346;2022-10-23T12:46:17;17.00;99.90
45983;DHT22;31711;47.158;7.346;2022-10-23T12:48:48;17.00;99.90
45983;DHT22;31711;47.158;7.346;2022-10-23T12:51:26;17.10;99.90
45983;DHT22;31711;47.158;7.346;2022-10-23T12:53:52;17.20;99.90
45983;DHT22;31711;47.158;7.346;2022-10-23T12:56:19;17.40;99.90
45983;DHT22;31711;47.158;7.346;2022-10-23T12:58:52;17.20;99.90
45983;DHT22;31711;47.158;7.346;2022-10-23T13:01:37;17.20;99.90
45983;DHT22;31711;47.158;7.346;2022-10-23T13:04:30;17.30;99.90
45983;DHT22;31711;47.158;7.346;2022-10-23T13:06:59;17.30;99.90
45983;DHT22;31711;47.158;7.346;2022-10-23T13:09:32;17.40;99.90
45983;DHT22;31711;47.158;7.346;2022-10-23T13:12:01;17.40;99.90
45983;DHT22;31711;47.158;7.346;2022-10-23T13:14:35;17.40;99.90
45983;DHT22;31711;47.158;7.346;2022-10-23T13:17:03;17.50;99.90
45983;DHT22;31711;47.158;7.346;2022-10-23T13:19:30;17.50;99.90
45983;DHT22;31711;47.158;7.346;2022-10-23T13:21:57;17.60;99.90
45983;DHT22;31711;47.158;7.346;2022-10-23T13:24:26;17.60;99.90
45983;DHT22;31711;47.158;7.346;2022-10-23T13:26:53;17.60;99.90
45983;DHT22;31711;47.158;7.346;2022-10-23T13:29:28;17.50;99.90
45983;DHT22;31711;47.158;7.346;2022-10-23T13:31:56;17.40;99.90
45983;DHT22;31711;47.158;7.346;2022-10-23T13:34:29;17.60;99.90
45983;DHT22;31711;47.158;7.346;2022-10-23T13:39:42;17.50;99.90
45983;DHT22;31711;47.158;7.346;2022-10-23T13:42:11;17.60;99.90
45983;DHT22;31711;47.158;7.346;2022-10-23T13:44:39;17.70;99.90
45983;DHT22;31711;47.158;7.346;2022-10-23T13:47:08;17.90;99.90
45983;DHT22;31711;47.158;7.346;2022-10-23T13:49:35;18.10;99.90
45983;DHT22;31711;47.158;7.346;2022-10-23T13:52:01;18.20;99.90
45983;DHT22;31711;47.158;7.346;2022-10-23T13:54:28;18.30;99.90
45983;DHT22;31711;47.158;7.346;2022-10-23T13:56:55;18.30;99.90
45983;DHT22;31711;47.158;7.346;2022-10-23T13:59:22;18.30;99.90
45983;DHT22;31711;47.158;7.346;2022-10-23T14:01:48;18.40;99.90
45983;DHT22;31711;47.158;7.346;2022-10-23T14:04:16;18.30;99.90
45983;DHT22;31711;47.158;7.346;2022-10-23T14:06:42;18.30;99.90
45983;DHT22;31711;47.158;7.346;2022-10-23T14:09:14;18.40;99.90
45983;DHT22;31711;47.158;7.346;2022-10-23T14:11:41;18.30;99.90
45983;DHT22;31711;47.158;7.346;2022-10-23T14:14:07;18.10;99.90
45983;DHT22;31711;47.158;7.346;2022-10-23T14:16:33;17.90;99.90
45983;DHT22;31711;47.158;7.346;2022-10-23T14:18:59;17.50;99.90
45983;DHT22;31711;47.158;7.346;2022-10-23T14:21:25;17.40;99.90
45983;DHT22;31711;47.158;7.346;2022-10-23T14:23:52;17.40;99.90
45983;DHT22;31711;47.158;7.346;2022-10-23T14:26:21;17.30;99.90
45983;DHT22;31711;47.158;7.346;2022-10-23T14:28:47;17.20;99.90
45983;DHT22;31711;47.158;7.346;2022-10-23T14:31:17;17.20;99.90
45983;DHT22;31711;47.158;7.346;2022-10-23T14:33:44;17.30;99.90
45983;DHT22;31711;47.158;7.346;2022-10-23T14:36:11;17.30;99.90
45983;DHT22;31711;47.158;7.346;2022-10-23T14:38:37;17.40;99.90
45983;DHT22;31711;47.158;7.346;2022-10-23T14:41:09;17.40;99.90
45983;DHT22;31711;47.158;7.346;2022-10-23T14:43:36;17.50;99.90
45983;DHT22;31711;47.158;7.346;2022-10-23T14:46:14;17.60;99.90
45983;DHT22;31711;47.158;7.346;2022-10-23T14:48:40;17.40;99.90
45983;DHT22;31711;47.158;7.346;2022-10-23T14:51:20;17.60;99.90
45983;DHT22;31711;47.158;7.346;2022-10-23T14:53:47;17.70;99.90
45983;DHT22;31711;47.158;7.346;2022-10-23T14:56:14;17.80;99.90
45983;DHT22;31711;47.158;7.346;2022-10-23T14:58:40;17.80;99.90
45983;DHT22;31711;47.158;7.346;2022-10-23T15:01:07;17.80;99.90
45983;DHT22;31711;47.158;7.346;2022-10-23T15:03:35;17.70;99.90
45983;DHT22;31711;47.158;7.346;2022-10-23T15:06:01;17.60;99.90
45983;DHT22;31711;47.158;7.346;2022-10-23T15:08:27;17.60;99.90
45983;DHT22;31711;47.158;7.346;2022-10-23T15:10:53;17.60;99.90
45983;DHT22;31711;47.158;7.346;2022-10-23T15:13:19;17.50;99.90
45983;DHT22;31711;47.158;7.346;2022-10-23T15:15:45;17.30;99.90
45983;DHT22;31711;47.158;7.346;2022-10-23T15:18:11;17.30;99.90
45983;DHT22;31711;47.158;7.346;2022-10-23T15:20:37;17.50;99.90
45983;DHT22;31711;47.158;7.346;2022-10-23T15:23:03;17.50;99.90
45983;DHT22;31711;47.158;7.346;2022-10-23T15:25:29;17.40;99.90
45983;DHT22;31711;47.158;7.346;2022-10-23T15:27:54;17.40;99.90
45983;DHT22;31711;47.158;7.346;2022-10-23T15:30:20;17.30;99.90
45983;DHT22;31711;47.158;7.346;2022-10-23T15:32:46;17.20;99.90
45983;DHT22;31711;47.158;7.346;2022-10-23T15:35:13;17.10;99.90
45983;DHT22;31711;47.158;7.346;2022-10-23T15:37:39;16.90;99.90
45983;DHT22;31711;47.158;7.346;2022-10-23T15:40:05;16.90;99.90
45983;DHT22;31711;47.158;7.346;2022-10-23T15:42:31;16.90;99.90
45983;DHT22;31711;47.158;7.346;2022-10-23T15:44:57;16.80;99.90
45983;DHT22;31711;47.158;7.346;2022-10-23T15:47:23;16.70;99.90
45983;DHT22;31711;47.158;7.346;2022-10-23T15:49:49;16.60;99.90
45983;DHT22;31711;47.158;7.346;2022-10-23T15:52:15;16.60;99.90
45983;DHT22;31711;47.158;7.346;2022-10-23T15:54:41;16.60;99.90
45983;DHT22;31711;47.158;7.346;2022-10-23T15:57:07;16.50;99.90
45983;DHT22;31711;47.158;7.346;2022-10-23T15:59:32;16.50;99.90
45983;DHT22;31711;47.158;7.346;2022-10-23T16:01:59;16.50;99.90
45983;DHT22;31711;47.158;7.346;2022-10-23T16:04:25;16.40;99.90
45983;DHT22;31711;47.158;7.346;2022-10-23T16:06:51;16.30;99.90
45983;DHT22;31711;47.158;7.346;2022-10-23T16:09:17;16.30;99.90
45983;DHT22;31711;47.158;7.346;2022-10-23T16:11:43;16.30;99.90
45983;DHT22;31711;47.158;7.346;2022-10-23T16:14:13;16.40;99.90
45983;DHT22;31711;47.158;7.346;2022-10-23T16:16:40;16.30;99.90
45983;DHT22;31711;47.158;7.346;2022-10-23T16:19:07;16.30;99.90
45983;DHT22;31711;47.158;7.346;2022-10-23T16:21:35;16.30;99.90
45983;DHT22;31711;47.158;7.346;2022-10-23T16:24:03;16.20;99.90
45983;DHT22;31711;47.158;7.346;2022-10-23T16:26:30;16.20;99.90
45983;DHT22;31711;47.158;7.346;2022-10-23T16:28:59;16.20;99.90
45983;DHT22;31711;47.158;7.346;2022-10-23T16:31:25;16.10;99.90
45983;DHT22;31711;47.158;7.346;2022-10-23T16:33:52;16.10;99.90
45983;DHT22;31711;47.158;7.346;2022-10-23T16:36:19;16.00;99.90
45983;DHT22;31711;47.158;7.346;2022-10-23T16:38:45;16.00;99.90
45983;DHT22;31711;47.158;7.346;2022-10-23T16:41:11;16.00;99.90
45983;DHT22;31711;47.158;7.346;2022-10-23T16:43:38;15.90;99.90
45983;DHT22;31711;47.158;7.346;2022-10-23T16:46:22;15.80;99.90
45983;DHT22;31711;47.158;7.346;2022-10-23T16:48:49;15.80;99.90
45983;DHT22;31711;47.158;7.346;2022-10-23T16:51:18;15.70;99.90
45983;DHT22;31711;47.158;7.346;2022-10-23T16:53:45;15.80;99.90
45983;DHT22;31711;47.158;7.346;2022-10-23T16:56:15;15.80;99.90
45983;DHT22;31711;47.158;7.346;2022-10-23T16:58:42;15.80;99.90
45983;DHT22;31711;47.158;7.346;2022-10-23T17:01:15;15.80;99.90
45983;DHT22;31711;47.158;7.346;2022-10-23T17:03:43;15.80;99.90
45983;DHT22;31711;47.158;7.346;2022-10-23T17:06:22;15.70;99.90
45983;DHT22;31711;47.158;7.346;2022-10-23T17:08:48;15.70;99.90
45983;DHT22;31711;47.158;7.346;2022-10-23T17:11:17;15.70;99.90
45983;DHT22;31711;47.158;7.346;2022-10-23T17:13:53;15.70;99.90
45983;DHT22;31711;47.158;7.346;2022-10-23T17:16:22;15.70;99.90
45983;DHT22;31711;47.158;7.346;2022-10-23T17:18:48;15.70;99.90
45983;DHT22;31711;47.158;7.346;2022-10-23T17:21:20;15.60;99.90
45983;DHT22;31711;47.158;7.346;2022-10-23T17:23:46;15.60;99.90
45983;DHT22;31711;47.158;7.346;2022-10-23T17:26:15;15.50;99.90
45983;DHT22;31711;47.158;7.346;2022-10-23T17:28:42;15.50;99.90
45983;DHT22;31711;47.158;7.346;2022-10-23T17:31:27;15.50;99.90
45983;DHT22;31711;47.158;7.346;2022-10-23T17:33:55;15.40;99.90